Browder, KY (42326)

3:52 AM CDT on March 27, 2015 (GMT -0500)
Madison & Render St | | Change Station
CLOSE
Current Station
Personal Weather Station
Location: Hartford, KY
Elevation: 423 ft
Nearby Weather Stations
Active Advisory: Flood Warning

Elev 423 ft 37.45 °N, 86.90 °W | Updated 1 minute ago

Clear
Clear
32.4 °F
Feels Like 32 °F
N
0.0
Wind Variable Wind from North
Gusts 0.0 mph

Today
High -- | Low -- °F
--% Chance of Precip.
Yesterday
High -- | Low -- °F
Precip. -- in
6:41 AM 7:06 PM
Waxing Crescent, 50% visible
Pressure 29.98 in
Visibility 7.0 miles
Clouds Clear
Windchill 32 °F
Dew Point 32 °F
Humidity 99%
Rainfall 0.00 in
Snow Depth Not available.
UV 0 out of 12
Pollen 4.00 out of 12
Air Quality Not available.
Flu Activity Not available.
METAR K2I0 270835Z AUTO 00000KT 7SM CLR 02/01 A2998 RMK AO2 T00160008

More Conditions Fewer Conditions

Pressure 29.98 in
Visibility 7.0 miles
Clouds Clear
Windchill 32 °F
Dew Point 32 °F
Humidity 99%
Rainfall 0.00 in
Snow Depth Not available.
UV 0 out of 12
Pollen 4.00 out of 12
Air Quality Not available.
Flu Activity Not available.
METAR K2I0 270835Z AUTO 00000KT 7SM CLR 02/01 A2998 RMK AO2 T00160008

More Conditions Fewer Conditions

10-Day Weather Forecast

Almanac

Astronomy

Mar. 27, 2015 Rise Set
Actual Time
Civil Twilight
Nautical Twilight
Astronomical Twilight
Moon
Length of Visible Light
Length of Day
Tomorrow will be .
, % of the Moon is Illuminated

Today's Extremes

State Highs State Lows

Community

WunderPhotos

Upload Photos

1,808,705 photos uploaded!

WunderBlogs® & News

Nearby

Air Quality

  Air Quality AQ Index Pollutant
Not available.

Snow Depth

Station Depth Elevation

Earthquake Activity

City Distance Mag. Time & Date
Minimum magnitude displayed is 2.5.

Coastal Water Temperatures

Place Temperature

Stations

Nearby Weather Stations

Station Location Temp. Windchill Dew Point Humidity Wind Precip. Elev Updated Type
                   
Flood Warning
Statement as of 9:04 PM CDT on March 26, 2015

The Flood Warning continues for
the Green River at Paradise
* until Sunday evening.
* At 8:15 PM Thursday the stage was 382.1 feet.
* Flood stage is 380.0 feet.
* Minor flooding is occurring and minor flooding is forecast.
* Forecast... the river will continue to fall to below flood stage by
Sunday afternoon.


Lat... Lon 3746 8716 3731 8719 3729 8707 3720 8697
      3726 8689 3742 8703